Abington, CT

2:53 AM EDT on April 25, 2015 (GMT -0400)
Pomfret School | | Change Station
CLOSE
Current Station
Personal Weather Station
Location: Pomfret, CT
Elevation: 577 ft
Nearby Weather Stations
Active Advisory: Freeze Warning

Elev 577 ft 41.89 °N, 71.97 °W | Updated 11 seconds ago

Clear
Clear
31.8 °F
Feels Like 32 °F
N
0.0
Wind Variable Wind from West
Gusts 4.0 mph

Today
High -- | Low -- °F
--% Chance of Precip.
Yesterday
High -- | Low -- °F
Precip. -- in
5:53 AM 7:39 PM
Waxing Crescent, 43% visible
Pressure 29.83 in
Visibility 10.0 miles
Clouds Clear
Windchill 32 °F
Dew Point 23 °F
Humidity 69%
Rainfall 0.00 in
Snow Depth Not available.
UV 0 out of 12
Pollen 9.70 out of 12
Air Quality Not available.
Flu Activity Widespread
METAR KIJD 250552Z AUTO 00000KT 10SM CLR 02/M06 A2982 RMK AO2 SLP099 T00171061 10050 20017 58010

More Conditions Fewer Conditions

Pressure 29.83 in
Visibility 10.0 miles
Clouds Clear
Windchill 32 °F
Dew Point 23 °F
Humidity 69%
Rainfall 0.00 in
Snow Depth Not available.
UV 0 out of 12
Pollen 9.70 out of 12
Air Quality Not available.
Flu Activity Widespread
METAR KIJD 250552Z AUTO 00000KT 10SM CLR 02/M06 A2982 RMK AO2 SLP099 T00171061 10050 20017 58010

More Conditions Fewer Conditions

10-Day Weather Forecast

Almanac

Astronomy

Apr. 25, 2015 Rise Set
Actual Time
Civil Twilight
Nautical Twilight
Astronomical Twilight
Moon
Length of Visible Light
Length of Day
Tomorrow will be .
, % of the Moon is Illuminated

Today's Extremes

State Highs State Lows

Community

WunderPhotos

Upload Photos

1,816,624 photos uploaded!

WunderBlogs® & News

Nearby

Air Quality

  Air Quality AQ Index Pollutant
Not available.

Snow Depth

Station Depth Elevation

Earthquake Activity

City Distance Mag. Time & Date
Minimum magnitude displayed is 2.5.

Coastal Water Temperatures

Place Temperature

Stations

Nearby Weather Stations

Station Location Temp. Windchill Dew Point Humidity Wind Precip. Elev Updated Type
                   
Freeze Warning
Statement as of 9:52 PM EDT on April 24, 2015

... Freeze warning remains in effect from 2 am to 8 am EDT
Saturday...

* location... Hartford... Tolland and Windham counties in
Connecticut. Western Kent and northwest Providence counties in
Rhode Island.

* Temperatures... in the lower 30s.

* Timing... late tonight through early Saturday.

* Impacts... possible damage to early season plants.

Precautionary/preparedness actions...

A freeze warning is issued when freezing temperatures are
forecast. These conditions could kill unprotected plants and
other vegetation left outdoors. Protect tender vegetation... or
bring it indoors.




For the latest updates... please visit our webpage at
www.Weather.Gov/Boston

You can follow US on facebook at
www.Facebook.Com/nwsboston